EKKA/KRP METAR and TAF weather

Enter ICAO airport designator
Station Type Date Time Source
EKKA METAR 2022/01/26 19:50 UTC NOAA

EKKA 261950Z AUTO 24013KT 9999 BKN013/// 06/04 Q1015


Station Type Date Time Source
EKKA Decoded METAR 2022/01/26 19:50 UTC NOAA

Karup, Denmark (EKKA) 56-18N 009-07E 53M
Jan 26, 2022 - 02:50 PM EST / 2022.01.26 1950 UTC
Wind: from the WSW (240 degrees) at 15 MPH (13 KT):0
Visibility: greater than 7 mile(s):0
Sky conditions: mostly cloudy
Temperature: 42 F (6 C)
Dew Point: 39 F (4 C)
Relative Humidity: 86%
Pressure (altimeter): 29.97 in. Hg (1015 hPa)
ob: EKKA 261950Z AUTO 24013KT 9999 BKN013/// 06/04 Q1015
cycle: 20

Station Type Date Time Source
EKKA TAF 2022/01/26 18:30 UTC NOAA

TAF EKKA 261719Z 2618/2718 24016KT 9999 SCT015 BKN160 PROB40 2618/2621 4000 -DZ BR BKN008
BECMG 2621/2624 24020G30KT 6000 -RA SCT006 BKN012
TEMPO 2700/2706 2500 RADZ BKN004
BECMG 2706/2709 28025G40KT 9999 NSW SCT020

Example: see airport list